メインページ
METAR-TAF:

METAR-TAF

空港 :

Borden, オンタリオ州, カナダ

緯度: 44-15N, 経度: 079-55W, 海抜: 223m

現時点の気象観測

当レポートは1時間5分前の13:00(UTC)に作成
西/北西の風 15kt、最大22ktの突風を伴う
気温 -2°C
湿度 74%
気圧 1006 hPa
視程: 14.5km
高度2200ftの曇り
小雪

METAR: CYBN 151300Z AUTO 29015G22KT 9SM -SN OVC022 M02/M06 A2971 RMK SLP070

時間: 09:05 (14:05 UTC)

予報

当レポートは50分前の13:15(UTC)に作成
予報は15日の 13時(UTC)から 16日の 01時(UTC)まで有効
西/北西の風 15kt、最大30ktの突風を伴う
視程: 8.0km
高度2000ftの曇り
弱いにわか雪
15日の 13時(UTC)から 15日の 20時(UTC)まで一時的に
視程: 10km
高度2000ftの雲は散在している
高度4000ftの千切れ雲あり
15日の 18時(UTC)から 15日の 20時(UTC)まで徐々に
西/北西の風 10kt、最大20ktの突風を伴う
15日の 2000時(UTC)から
西/北西の風 10kt、最大20ktの突風を伴う
視程: 10km
高度2500ftの千切れ雲あり
15日の 22時(UTC)から 15日の 24時(UTC)まで徐々に
北西の風 5kt

TAF: CYBN 151315Z 1513/1601 29015G30KT 5SM -SHSN OVC020 TEMPO 1513/1520 P6SM NSW SCT020 BKN040 BECMG 1518/1520 30010G20KT FM152000 30010G20KT P6SM BKN025 BECMG 1522/1524 31005KT RMK FCST BASED ON AUTO OBS. NXT FCST BY 151800Z

4,000以上の空港の気象観測と天気予報(METAR報とTAF報)

利用可能な観測所は地図上に黄色い丸と赤い丸で示す。

丸の上にカーソルを重ねると観測所名を参照できる。

次にクリックすると気象観測と天気予報を参照できる。

マップの切り替え:黒色「×」印の緑ボタンをクリックして拡大、「-」印の緑ボタンをクリックして縮小、緑色の三角印をクリックして隣りの地図に切り替え


METAR-TAF: